»·PEaware :: ASA1747 KSEA-KSFO

ASA1747 :: KSEA-KSFO

FLIGHT INFORMATION

Flight Status: Arrived
Operator:
Alaska Airlines
More flights by this operator :: More flights under this callsign
Pilot: Jessica F. (17029)
Aircraft: AIRBUS A320
(A320)
More flights by this aircraft type
Origin: KSEA Seattle-Tacoma Intl
United States
Destination: KSFO San Francisco Intl
United States
More flights between these airports :: More routes between these airports
Route: HAROB6 FEPOT Q3 FOWND MLBEC BDEGA2
File this flight plan on PilotEdge
Remarks: PBN / A1B1C1D1O1S1 DOF / 180501 REG / N320SB EET / KZOA0050 OPR / ASA PER / C RMK / TCAS SIMBRIEF
Altitude:
(Current/Filed)
35,000ft
Speed:
(Current/Filed)
452kts
Departed: 30-Apr-18 06:37 PM
Arrived: 30-Apr-18 08:23 PM
Distance/Time
Traveled:
590nm/1:46
Distance/Time
To Go:
Arrived

Flight Plot

Page will automatically refresh every two minutes.

Flight plan parsing failed; only flown route is shown


Map Options




Map Legend


Flown Route
Filed Route
Departure Airport
Arrival Airport
Navaid (VOR, NDB)
Fix

Horizontal Profiles

Position Reports

Time Latitude Longitude Heading Altitude Ground
Speed
30-Apr-18 17:59 47.445423 -122.301461 132 336ft 0kts
30-Apr-18 18:00 47.445423 -122.301461 132 336ft 0kts
30-Apr-18 18:01 47.445423 -122.301461 132 336ft 0kts
30-Apr-18 18:02 47.445423 -122.301461 132 336ft 0kts
30-Apr-18 18:03 47.445423 -122.301461 132 336ft 0kts
30-Apr-18 18:04 47.445423 -122.301461 132 336ft 0kts
30-Apr-18 18:05 47.445423 -122.301461 132 336ft 0kts
30-Apr-18 18:06 47.445423 -122.301461 132 336ft 0kts
30-Apr-18 18:07 47.445423 -122.301461 132 336ft 0kts
30-Apr-18 18:08 47.445423 -122.301461 132 336ft 0kts
30-Apr-18 18:09 47.445423 -122.301461 132 336ft 0kts
30-Apr-18 18:10 47.445423 -122.301461 132 336ft 0kts
30-Apr-18 18:11 47.445423 -122.301461 132 336ft 0kts
30-Apr-18 18:12 47.445423 -122.301461 132 336ft 0kts
30-Apr-18 18:13 47.445423 -122.301461 132 336ft 0kts
30-Apr-18 18:14 47.445423 -122.301461 132 336ft 0kts
30-Apr-18 18:15 47.445423 -122.301461 132 336ft 0kts
30-Apr-18 18:16 47.445423 -122.301461 132 336ft 0kts
30-Apr-18 18:17 47.445423 -122.301461 132 336ft 0kts
30-Apr-18 18:17 47.445423 -122.301461 132 336ft 0kts
30-Apr-18 18:18 47.445423 -122.301461 132 336ft 0kts
30-Apr-18 18:19 47.445423 -122.301461 132 336ft 0kts
30-Apr-18 18:21 47.445423 -122.301461 132 336ft 0kts
30-Apr-18 18:22 47.445423 -122.301461 132 336ft 0kts
30-Apr-18 18:23 47.445423 -122.301461 132 336ft 0kts
30-Apr-18 18:23 47.445440 -122.301488 133 336ft 2kts
30-Apr-18 18:24 47.445877 -122.302025 166 336ft 2kts
30-Apr-18 18:25 47.446454 -122.301883 197 336ft 2kts
30-Apr-18 18:26 47.446751 -122.301343 259 336ft 0kts
30-Apr-18 18:27 47.446752 -122.301339 259 336ft 0kts
30-Apr-18 18:28 47.446752 -122.301339 259 336ft 0kts
30-Apr-18 18:29 47.446752 -122.301339 259 336ft 0kts
30-Apr-18 18:30 47.447036 -122.303366 318 336ft 15kts
30-Apr-18 18:31 47.447460 -122.306278 180 336ft 15kts
30-Apr-18 18:32 47.441563 -122.306348 180 336ft 27kts
30-Apr-18 18:33 47.434068 -122.305554 181 336ft 29kts
30-Apr-18 18:34 47.431811 -122.306422 247 336ft 0kts
30-Apr-18 18:35 47.432024 -122.308033 351 336ft 6kts
30-Apr-18 18:36 47.459197 -122.308405 359 1344ft 171kts
30-Apr-18 18:37 47.505047 -122.307200 0 3664ft 224kts
30-Apr-18 18:38 47.556777 -122.312862 338 5830ft 253kts
30-Apr-18 18:39 47.602724 -122.361275 307 8524ft 257kts
30-Apr-18 18:40 47.616491 -122.441662 272 10884ft 271kts
30-Apr-18 18:41 47.581950 -122.528663 230 11862ft 343kts
30-Apr-18 18:42 47.527284 -122.611083 231 13427ft 361kts
30-Apr-18 18:43 47.479644 -122.683380 230 14892ft 369kts
30-Apr-18 18:44 47.423234 -122.769084 230 16485ft 377kts
30-Apr-18 18:45 47.350716 -122.878983 230 18312ft 386kts
30-Apr-18 18:46 47.275849 -122.991985 230 19970ft 395kts
30-Apr-18 18:47 47.191990 -123.097325 221 21481ft 409kts
30-Apr-18 18:48 47.099963 -123.194883 212 22859ft 422kts
30-Apr-18 18:49 46.997231 -123.216763 183 23926ft 449kts
30-Apr-18 18:50 46.919544 -123.213637 183 24680ft 453kts
30-Apr-18 18:51 46.819676 -123.210171 183 25566ft 459kts
30-Apr-18 18:52 46.694407 -123.205986 183 26574ft 465kts
30-Apr-18 18:53 46.568226 -123.201801 183 27506ft 472kts
30-Apr-18 18:54 46.438920 -123.197531 183 28362ft 477kts
30-Apr-18 18:55 46.310635 -123.193285 183 29403ft 476kts
30-Apr-18 18:56 46.181754 -123.189060 183 30472ft 473kts
30-Apr-18 18:57 46.052442 -123.184855 184 31515ft 471kts
30-Apr-18 18:58 45.924866 -123.180725 184 32486ft 469kts
30-Apr-18 18:59 45.808600 -123.176976 184 33293ft 467kts
30-Apr-18 19:00 45.682607 -123.172932 184 34106ft 465kts
30-Apr-18 19:01 45.554219 -123.168829 184 34872ft 463kts
30-Apr-18 19:02 45.427722 -123.164805 184 35250ft 461kts
30-Apr-18 19:03 45.300340 -123.160781 184 35253ft 462kts
30-Apr-18 19:04 45.173018 -123.156767 184 35253ft 462kts
30-Apr-18 19:05 45.046769 -123.152803 184 35253ft 462kts
30-Apr-18 19:06 44.920921 -123.148870 184 35255ft 462kts
30-Apr-18 19:07 44.800330 -123.145117 184 35254ft 462kts
30-Apr-18 19:08 44.674873 -123.141229 184 35252ft 463kts
30-Apr-18 19:09 44.548005 -123.137315 184 35253ft 463kts
30-Apr-18 19:10 44.422860 -123.133097 184 35252ft 463kts
30-Apr-18 19:11 44.296866 -123.128570 184 35252ft 463kts
30-Apr-18 19:12 44.171338 -123.124101 184 35253ft 463kts
30-Apr-18 19:13 44.044959 -123.119620 184 35255ft 463kts
30-Apr-18 19:14 43.922613 -123.115301 184 35255ft 463kts
30-Apr-18 19:15 43.801916 -123.111058 184 35254ft 463kts
30-Apr-18 19:16 43.675120 -123.106621 184 35252ft 463kts
30-Apr-18 19:17 43.549627 -123.102246 184 35253ft 464kts
30-Apr-18 19:18 43.423437 -123.097865 184 35254ft 464kts
30-Apr-18 19:19 43.297287 -123.093505 184 35251ft 464kts
30-Apr-18 19:20 43.171352 -123.089170 184 35251ft 464kts
30-Apr-18 19:21 43.045745 -123.084865 184 35252ft 464kts
30-Apr-18 19:22 42.946421 -123.081472 184 35254ft 464kts
30-Apr-18 19:23 42.824120 -123.077308 184 35253ft 464kts
30-Apr-18 19:24 42.696554 -123.072986 184 35252ft 464kts
30-Apr-18 19:25 42.570155 -123.068719 184 35254ft 464kts
30-Apr-18 19:26 42.445517 -123.064555 184 35254ft 464kts
30-Apr-18 19:27 42.318181 -123.060440 184 35254ft 464kts
30-Apr-18 19:28 42.190868 -123.056332 184 35251ft 464kts
30-Apr-18 19:29 42.063729 -123.052246 184 35250ft 464kts
30-Apr-18 19:30 41.938077 -123.048224 184 35250ft 465kts
30-Apr-18 19:31 41.819794 -123.044451 184 35250ft 465kts
30-Apr-18 19:32 41.692963 -123.040422 184 35249ft 465kts
30-Apr-18 19:33 41.568012 -123.036468 184 35251ft 465kts
30-Apr-18 19:34 41.443954 -123.032558 184 35252ft 465kts
30-Apr-18 19:35 41.317191 -123.028587 184 35253ft 465kts
30-Apr-18 19:36 41.192266 -123.024811 184 35253ft 465kts
30-Apr-18 19:37 41.064477 -123.020954 184 35253ft 465kts
30-Apr-18 19:38 40.959827 -123.017804 184 35251ft 465kts
30-Apr-18 19:39 40.842451 -123.014283 184 35249ft 465kts
30-Apr-18 19:40 40.718029 -123.010565 184 35248ft 465kts
30-Apr-18 19:41 40.590919 -123.006782 184 35248ft 465kts
30-Apr-18 19:42 40.465656 -123.003068 184 35207ft 466kts
30-Apr-18 19:43 40.342427 -122.999425 184 34319ft 466kts
30-Apr-18 19:44 40.214430 -122.995667 184 33386ft 469kts
30-Apr-18 19:45 40.087595 -122.991945 183 32469ft 471kts
30-Apr-18 19:46 39.960351 -122.988228 183 31551ft 473kts
30-Apr-18 19:47 39.853330 -122.985111 183 30778ft 474kts
30-Apr-18 19:48 39.723944 -122.981357 183 29843ft 477kts
30-Apr-18 19:49 39.593397 -122.977587 183 29233ft 480kts
30-Apr-18 19:50 39.462382 -122.973803 183 29227ft 480kts
30-Apr-18 19:51 39.330885 -122.970001 183 29229ft 473kts
30-Apr-18 19:52 39.200966 -122.966306 183 29229ft 474kts
30-Apr-18 19:53 39.071043 -122.962724 184 29229ft 473kts
30-Apr-18 19:54 38.941942 -122.960287 184 29229ft 473kts
30-Apr-18 19:55 38.828325 -122.945483 171 28446ft 482kts
30-Apr-18 19:56 38.700271 -122.907295 171 25392ft 485kts
30-Apr-18 19:57 38.576952 -122.870732 171 24427ft 439kts
30-Apr-18 19:58 38.464757 -122.837716 171 23211ft 413kts
30-Apr-18 19:59 38.357189 -122.806228 171 21965ft 406kts
30-Apr-18 20:00 38.250635 -122.775061 171 20732ft 398kts
30-Apr-18 20:01 38.147528 -122.745016 171 18976ft 390kts
30-Apr-18 20:02 38.046303 -122.715645 171 17048ft 383kts
30-Apr-18 20:03 37.964689 -122.692013 171 15555ft 375kts
30-Apr-18 20:04 37.877480 -122.650982 143 13751ft 398kts
30-Apr-18 20:05 37.800513 -122.568459 142 13047ft 355kts
30-Apr-18 20:06 37.729449 -122.493048 142 11770ft 340kts
30-Apr-18 20:07 37.660710 -122.419924 142 11190ft 323kts
30-Apr-18 20:08 37.595881 -122.358137 155 10595ft 320kts
30-Apr-18 20:09 37.522652 -122.313886 157 9170ft 317kts
30-Apr-18 20:11 37.453905 -122.260886 121 7744ft 314kts
30-Apr-18 20:12 37.416439 -122.169058 114 6333ft 288kts
30-Apr-18 20:13 37.385789 -122.093444 98 6185ft 207kts
30-Apr-18 20:14 37.413238 -122.067303 344 6043ft 147kts
30-Apr-18 20:15 37.448970 -122.080210 344 5001ft 138kts
30-Apr-18 20:16 37.481477 -122.102381 322 3976ft 143kts
30-Apr-18 20:17 37.508729 -122.138507 319 2939ft 147kts
30-Apr-18 20:18 37.534067 -122.178621 314 1978ft 144kts
30-Apr-18 20:19 37.555138 -122.223310 302 1965ft 150kts
30-Apr-18 20:20 37.574142 -122.268835 302 1610ft 140kts
30-Apr-18 20:21 37.591744 -122.310762 301 882ft 136kts
30-Apr-18 20:22 37.609180 -122.352346 300 166ft 137kts
30-Apr-18 20:23 37.618606 -122.374970 293 21ft 18kts
30-Apr-18 20:24 37.616803 -122.379492 210 21ft 20kts
30-Apr-18 20:25 37.616761 -122.381727 17 21ft 0kts
30-Apr-18 20:26 37.616770 -122.381723 17 21ft 0kts

Navigation Log

Ident Type
Flight plan parsing failed, navigation log unavailable